createdAt,value
2019-03-09T00:02:10.457Z,2.50
2019-03-09T00:04:42.825Z,3.15
2019-03-09T00:07:13.737Z,2.83
2019-03-09T00:09:49.489Z,2.90
2019-03-09T00:12:20.094Z,2.40
2019-03-09T00:14:51.114Z,2.87
2019-03-09T00:17:21.888Z,2.75
2019-03-09T00:19:52.512Z,2.17
2019-03-09T00:22:23.909Z,2.90
2019-03-09T00:25:03.109Z,2.50
2019-03-09T00:27:42.111Z,2.35
2019-03-09T00:30:26.272Z,2.70
2019-03-09T00:32:56.772Z,2.60
2019-03-09T00:35:27.628Z,2.30
2019-03-09T00:37:58.454Z,2.45
2019-03-09T00:40:29.382Z,2.58
2019-03-09T00:43:00.162Z,2.80
2019-03-09T00:45:33.361Z,2.70
2019-03-09T00:48:03.929Z,2.70
2019-03-09T00:50:34.998Z,2.55
2019-03-09T00:53:05.867Z,2.42
2019-03-09T00:55:36.390Z,2.33
2019-03-09T00:58:06.968Z,2.27
2019-03-09T01:00:37.844Z,2.30
2019-03-09T01:03:08.439Z,2.10
2019-03-09T01:05:39.134Z,2.40
2019-03-09T01:08:09.593Z,2.47
2019-03-09T01:10:40.398Z,2.20
2019-03-09T01:13:11.021Z,2.27
2019-03-09T01:15:41.519Z,2.60
2019-03-09T01:18:12.056Z,2.08
2019-03-09T01:20:42.800Z,1.95
2019-03-09T01:23:13.719Z,2.30
2019-03-09T01:25:44.238Z,1.87
2019-03-09T01:28:14.904Z,2.17
2019-03-09T01:30:45.514Z,1.80
2019-03-09T01:33:16.043Z,2.10
2019-03-09T01:35:46.599Z,2.22
2019-03-09T01:38:17.330Z,2.12
2019-03-09T01:40:47.897Z,2.17
2019-03-09T01:43:18.373Z,2.33
2019-03-09T01:45:49.093Z,2.10
2019-03-09T01:48:19.689Z,1.92
2019-03-09T01:50:50.273Z,2.10
2019-03-09T01:53:20.913Z,2.02
2019-03-09T01:55:51.525Z,2.20
2019-03-09T01:58:22.279Z,1.90
2019-03-09T02:00:53.094Z,1.90
2019-03-09T02:03:23.567Z,1.80
2019-03-09T02:05:54.373Z,1.90
2019-03-09T02:08:24.863Z,1.70
2019-03-09T02:10:55.511Z,1.62
2019-03-09T02:13:26.316Z,1.80
2019-03-09T02:15:57.018Z,1.92
2019-03-09T02:18:27.721Z,1.77
2019-03-09T02:20:58.257Z,2.00
2019-03-09T02:23:28.766Z,1.85
2019-03-09T02:25:59.485Z,1.90
2019-03-09T02:28:30.011Z,1.92
2019-03-09T02:31:00.712Z,1.80
2019-03-09T02:33:31.511Z,1.75
2019-03-09T02:36:02.114Z,1.72
2019-03-09T02:38:51.804Z,1.82
2019-03-09T02:41:22.637Z,1.85
2019-03-09T02:43:53.629Z,1.75
2019-03-09T02:46:24.374Z,1.70
2019-03-09T02:48:55.010Z,2.02
2019-03-09T02:51:25.621Z,1.70
2019-03-09T02:53:56.437Z,1.87
2019-03-09T02:56:26.988Z,1.90
2019-03-09T02:59:04.779Z,2.05
2019-03-09T03:01:47.116Z,1.62
2019-03-09T03:04:26.570Z,1.62
2019-03-09T03:06:57.208Z,1.60
2019-03-09T03:09:27.788Z,1.80
2019-03-09T03:11:58.260Z,1.82
2019-03-09T03:14:29.162Z,1.70
2019-03-09T03:17:00.127Z,1.50
2019-03-09T03:19:31.027Z,1.70
2019-03-09T03:22:01.599Z,1.60
2019-03-09T03:24:32.169Z,1.50
2019-03-09T03:27:03.025Z,1.40
2019-03-09T03:29:33.653Z,1.65
2019-03-09T03:32:04.341Z,1.72
2019-03-09T03:34:34.929Z,1.52
2019-03-09T03:37:05.657Z,1.70
2019-03-09T03:39:36.599Z,1.70
2019-03-09T03:42:07.585Z,1.40
2019-03-09T03:44:47.119Z,1.52
2019-03-09T03:47:18.418Z,1.47
2019-03-09T03:49:49.064Z,1.37
2019-03-09T03:52:19.818Z,1.30
2019-03-09T03:54:50.373Z,1.45
2019-03-09T03:57:21.484Z,1.30
2019-03-09T03:59:52.216Z,1.50
2019-03-09T04:02:23.065Z,1.42
2019-03-09T04:04:54.029Z,1.57
2019-03-09T04:07:24.650Z,1.47
2019-03-09T04:09:55.493Z,1.70
2019-03-09T04:12:26.496Z,1.65
2019-03-09T04:14:57.015Z,1.50
2019-03-09T04:17:27.777Z,1.35
2019-03-09T04:19:58.251Z,1.40
2019-03-09T04:22:29.110Z,1.60
2019-03-09T04:24:59.904Z,1.25
2019-03-09T04:27:30.636Z,1.30
2019-03-09T04:30:01.292Z,1.50
2019-03-09T04:32:32.022Z,1.30
2019-03-09T04:35:02.695Z,1.55
2019-03-09T04:37:33.652Z,1.50
2019-03-09T04:40:04.410Z,1.42
2019-03-09T04:42:34.870Z,1.45
2019-03-09T04:45:06.079Z,1.50
2019-03-09T04:47:36.647Z,1.30
2019-03-09T04:50:07.535Z,1.20
2019-03-09T04:52:37.978Z,1.30
2019-03-09T04:55:08.573Z,1.47
2019-03-09T04:57:39.170Z,1.40
2019-03-09T05:00:09.754Z,1.52
2019-03-09T05:02:40.204Z,1.42
2019-03-09T05:05:11.221Z,1.32
2019-03-09T05:07:48.621Z,1.10
2019-03-09T05:10:28.149Z,1.37
2019-03-09T05:13:09.922Z,1.37
2019-03-09T05:15:41.193Z,1.30
2019-03-09T05:18:11.821Z,1.40
2019-03-09T05:20:42.462Z,1.50
2019-03-09T05:23:13.098Z,1.52
2019-03-09T05:25:43.855Z,1.27
2019-03-09T05:28:14.301Z,1.57
2019-03-09T05:30:46.336Z,1.35
2019-03-09T05:33:17.253Z,1.40
2019-03-09T05:35:47.983Z,1.32
2019-03-09T05:38:18.736Z,1.35
2019-03-09T05:40:49.379Z,1.40
2019-03-09T05:43:19.973Z,1.10
2019-03-09T05:45:50.692Z,1.40
2019-03-09T05:48:21.372Z,1.12
2019-03-09T05:50:52.316Z,1.30
2019-03-09T05:53:24.127Z,1.10
2019-03-09T05:55:54.971Z,1.05
2019-03-09T05:58:25.871Z,1.25
2019-03-09T06:00:56.619Z,1.37
2019-03-09T06:03:27.250Z,1.30
2019-03-09T06:06:11.681Z,1.25
2019-03-09T06:08:42.890Z,1.30
2019-03-09T06:11:13.632Z,1.30
2019-03-09T06:13:44.193Z,1.42
2019-03-09T06:16:14.802Z,1.25
2019-03-09T06:18:45.430Z,1.30
2019-03-09T06:21:16.454Z,1.20
2019-03-09T06:23:46.898Z,1.20
2019-03-09T06:26:17.582Z,1.20
2019-03-09T06:28:47.965Z,1.25
2019-03-09T06:31:18.777Z,1.32
2019-03-09T06:33:51.940Z,1.10
2019-03-09T06:37:02.186Z,1.52
2019-03-09T06:39:54.192Z,1.30
2019-03-09T06:42:50.538Z,1.32
2019-03-09T06:45:21.544Z,1.20
2019-03-09T06:47:51.968Z,1.60
2019-03-09T06:50:22.896Z,1.45
2019-03-09T06:52:54.632Z,1.20
2019-03-09T06:55:25.311Z,1.27
2019-03-09T06:57:55.953Z,1.30
2019-03-09T07:00:35.562Z,1.20
2019-03-09T07:03:06.693Z,1.20
2019-03-09T07:05:37.413Z,1.20
2019-03-09T07:08:07.956Z,1.32
2019-03-09T07:10:38.639Z,1.20
2019-03-09T07:13:09.345Z,1.20
2019-03-09T07:15:43.045Z,1.37
2019-03-09T07:18:16.845Z,1.40
2019-03-09T07:20:47.724Z,1.40
2019-03-09T07:23:20.018Z,1.52
2019-03-09T07:25:50.813Z,1.40
2019-03-09T07:28:21.999Z,1.27
2019-03-09T07:30:52.719Z,1.22
2019-03-09T07:33:24.605Z,1.30
2019-03-09T07:35:55.605Z,1.35
2019-03-09T07:38:26.227Z,1.27
2019-03-09T07:40:56.889Z,1.15
2019-03-09T07:43:28.017Z,1.12
2019-03-09T07:45:58.918Z,1.10
2019-03-09T07:48:29.792Z,1.40
2019-03-09T07:51:01.031Z,1.40
2019-03-09T07:53:32.111Z,1.00
2019-03-09T07:56:03.022Z,1.32
2019-03-09T07:58:33.598Z,1.30
2019-03-09T08:01:04.578Z,1.20
2019-03-09T08:03:35.316Z,1.20
2019-03-09T08:06:05.872Z,1.30
2019-03-09T08:08:36.429Z,1.27
2019-03-09T08:11:07.082Z,1.20
2019-03-09T08:13:37.746Z,1.20
2019-03-09T08:16:08.471Z,1.20
2019-03-09T08:18:39.264Z,1.20
2019-03-09T08:21:09.791Z,1.20
2019-03-09T08:23:40.688Z,1.10
2019-03-09T08:26:11.547Z,1.15
2019-03-09T08:28:42.106Z,1.20
2019-03-09T08:31:13.796Z,1.20
2019-03-09T08:33:45.675Z,1.12
2019-03-09T08:36:17.111Z,1.10
2019-03-09T08:38:50.120Z,1.10
2019-03-09T08:41:21.370Z,1.27
2019-03-09T08:43:52.669Z,1.07
2019-03-09T08:46:24.076Z,1.00
2019-03-09T08:48:55.361Z,1.02
2019-03-09T08:51:26.793Z,0.98
2019-03-09T08:53:58.458Z,1.00
2019-03-09T08:56:30.962Z,0.90
2019-03-09T08:59:04.216Z,1.20
2019-03-09T09:01:35.384Z,1.10
2019-03-09T09:04:05.938Z,0.98
2019-03-09T09:06:37.458Z,1.05
2019-03-09T09:09:09.084Z,1.10
2019-03-09T09:11:39.847Z,1.10
2019-03-09T09:14:11.241Z,1.00
2019-03-09T09:16:42.647Z,0.82
2019-03-09T09:19:14.295Z,4.40
2019-03-09T09:21:48.238Z,3.05
2019-03-09T09:24:19.866Z,2.75
2019-03-09T09:26:51.439Z,3.70
2019-03-09T09:29:22.932Z,3.55
2019-03-09T09:31:54.406Z,3.33
2019-03-09T09:34:25.015Z,2.50
2019-03-09T09:36:55.674Z,2.70
2019-03-09T09:39:27.130Z,2.20
2019-03-09T09:41:59.696Z,2.12
2019-03-09T09:44:31.276Z,2.30
2019-03-09T09:47:02.673Z,2.25
2019-03-09T09:49:34.137Z,2.20
2019-03-09T09:52:05.421Z,2.08
2019-03-09T09:54:36.827Z,2.10
2019-03-09T09:57:08.620Z,2.17
2019-03-09T09:59:40.081Z,2.27
2019-03-09T10:02:11.639Z,2.00
2019-03-09T10:04:43.118Z,1.72
2019-03-09T10:07:14.450Z,2.33
2019-03-09T10:09:45.459Z,1.90
2019-03-09T10:12:16.015Z,1.80
2019-03-09T10:14:48.582Z,1.40
2019-03-09T10:17:19.294Z,1.37
2019-03-09T10:19:49.883Z,1.37
2019-03-09T10:22:22.001Z,2.27
2019-03-09T10:24:52.884Z,2.15
2019-03-09T10:27:23.555Z,1.80
2019-03-09T10:29:54.203Z,2.10
2019-03-09T10:32:25.222Z,1.90
2019-03-09T10:34:56.041Z,2.15
2019-03-09T10:37:27.377Z,2.35
2019-03-09T10:39:58.014Z,2.30
2019-03-09T10:42:28.761Z,2.00
2019-03-09T10:44:59.592Z,2.10
2019-03-09T10:47:30.233Z,2.20
2019-03-09T10:50:00.694Z,1.90
2019-03-09T10:52:31.466Z,2.30
2019-03-09T10:55:02.312Z,2.10
2019-03-09T10:57:32.729Z,2.30
2019-03-09T11:00:04.213Z,3.10
2019-03-09T11:02:34.781Z,3.10
2019-03-09T11:05:05.548Z,2.70
2019-03-09T11:07:36.921Z,2.80
2019-03-09T11:10:09.262Z,2.42
2019-03-09T11:12:40.163Z,2.37
2019-03-09T11:15:11.969Z,2.65
2019-03-09T11:17:43.443Z,2.17
2019-03-09T11:20:15.318Z,2.30
2019-03-09T11:22:46.519Z,2.25
2019-03-09T11:25:17.160Z,1.90
2019-03-09T11:27:47.889Z,2.10
2019-03-09T11:30:21.697Z,2.10
2019-03-09T11:32:52.247Z,2.10
2019-03-09T11:35:22.895Z,2.10
2019-03-09T11:37:53.495Z,2.02
2019-03-09T11:40:24.259Z,2.00
2019-03-09T11:42:55.015Z,2.12
2019-03-09T11:45:25.655Z,1.90
2019-03-09T11:47:56.450Z,2.10
2019-03-09T11:50:27.178Z,2.08
2019-03-09T11:52:57.871Z,1.90
2019-03-09T11:55:28.452Z,1.95
2019-03-09T11:57:58.988Z,2.00
2019-03-09T12:00:32.989Z,1.80
2019-03-09T12:03:05.157Z,1.82
2019-03-09T12:05:35.894Z,1.80
2019-03-09T12:08:08.220Z,2.02
2019-03-09T12:10:39.884Z,2.00
2019-03-09T12:13:11.856Z,2.12
2019-03-09T12:15:44.050Z,2.00
2019-03-09T12:18:16.050Z,1.80
2019-03-09T12:20:46.752Z,2.12
2019-03-09T12:23:20.650Z,2.30
2019-03-09T12:25:51.214Z,2.15
2019-03-09T12:28:21.969Z,1.62
2019-03-09T12:30:52.802Z,2.00
2019-03-09T12:33:23.511Z,2.35
2019-03-09T12:35:54.342Z,2.05
2019-03-09T12:38:25.153Z,1.98
2019-03-09T12:40:55.827Z,2.40
2019-03-09T12:43:26.427Z,2.85
2019-03-09T12:45:57.283Z,2.60
2019-03-09T12:48:27.808Z,2.47
2019-03-09T12:50:58.474Z,2.30
2019-03-09T12:53:29.103Z,2.22
2019-03-09T12:55:59.799Z,2.12
2019-03-09T12:58:30.713Z,2.17
2019-03-09T13:01:01.348Z,2.17
2019-03-09T13:03:32.030Z,2.20
2019-03-09T13:06:02.875Z,1.92
2019-03-09T13:08:33.672Z,2.00
2019-03-09T13:11:04.468Z,1.90
2019-03-09T13:13:35.266Z,1.92
2019-03-09T13:16:06.098Z,1.92
2019-03-09T13:18:36.927Z,2.12
2019-03-09T13:21:07.586Z,1.82
2019-03-09T13:23:38.328Z,2.05
2019-03-09T13:26:08.985Z,2.00
2019-03-09T13:28:39.752Z,1.85
2019-03-09T13:34:58.160Z,1.90
2019-03-09T13:37:29.004Z,2.15
2019-03-09T13:39:59.941Z,1.80
2019-03-09T13:42:30.551Z,1.92
2019-03-09T13:45:01.141Z,1.87
2019-03-09T13:47:31.840Z,1.98
2019-03-09T13:50:02.655Z,1.90
2019-03-09T13:52:33.173Z,1.60
2019-03-09T13:55:03.571Z,2.00
2019-03-09T13:57:34.112Z,2.10
2019-03-09T14:00:04.987Z,2.02
2019-03-09T14:02:35.814Z,2.65
2019-03-09T14:05:06.556Z,2.12
2019-03-09T14:07:37.375Z,2.08
2019-03-09T14:10:09.446Z,2.42
2019-03-09T14:12:39.952Z,2.08
2019-03-09T14:15:12.885Z,2.10
2019-03-09T14:17:43.347Z,2.40
2019-03-09T14:20:14.202Z,2.10
2019-03-09T14:22:44.960Z,2.30
2019-03-09T14:25:15.536Z,12.40
2019-03-09T14:27:46.042Z,21.95
2019-03-09T14:30:17.060Z,31.25
2019-03-09T14:32:47.781Z,15.20
2019-03-09T14:35:18.251Z,10.45
2019-03-09T14:37:49.058Z,8.38
2019-03-09T14:40:19.716Z,6.70
2019-03-09T14:42:51.118Z,5.37
2019-03-09T14:45:21.822Z,5.03
2019-03-09T14:47:52.608Z,5.55
2019-03-09T14:50:23.014Z,4.65
2019-03-09T14:52:53.872Z,4.08
2019-03-09T14:55:24.810Z,4.65
2019-03-09T14:57:55.572Z,3.62
2019-03-09T15:00:26.713Z,3.92
2019-03-09T15:02:57.644Z,3.98
2019-03-09T15:05:28.340Z,3.45
2019-03-09T15:07:59.031Z,3.58
2019-03-09T15:10:29.653Z,3.52
2019-03-09T15:13:00.184Z,3.80
2019-03-09T15:15:30.851Z,4.20
2019-03-09T15:18:01.643Z,3.75
2019-03-09T15:20:32.751Z,3.70
2019-03-09T15:23:04.384Z,3.47
2019-03-09T15:25:37.655Z,3.92
2019-03-09T15:28:08.422Z,3.80
2019-03-09T15:30:40.540Z,3.87
2019-03-09T15:33:12.568Z,3.30
2019-03-09T15:35:43.415Z,3.72
2019-03-09T15:38:15.141Z,3.90
2019-03-09T15:40:46.707Z,4.15
2019-03-09T15:43:20.658Z,4.15
2019-03-09T15:45:52.812Z,4.12
2019-03-09T15:48:25.380Z,3.47
2019-03-09T15:50:57.076Z,3.62
2019-03-09T15:53:28.841Z,3.70
2019-03-09T15:56:00.449Z,4.15
2019-03-09T15:58:31.934Z,3.30
2019-03-09T16:01:03.598Z,4.20
2019-03-09T16:03:35.270Z,3.83
2019-03-09T16:06:06.886Z,4.47
2019-03-09T16:08:38.622Z,3.27
2019-03-09T16:11:09.517Z,4.10
2019-03-09T16:13:40.048Z,3.75
2019-03-09T16:16:10.845Z,3.50
2019-03-09T16:18:41.323Z,2.90
2019-03-09T16:21:12.456Z,3.15
2019-03-09T16:23:43.047Z,3.20
2019-03-09T16:26:13.836Z,2.65
2019-03-09T16:28:44.241Z,3.12
2019-03-09T16:31:15.479Z,3.10
2019-03-09T16:33:46.002Z,2.60
2019-03-09T16:36:16.640Z,2.87
2019-03-09T16:38:47.349Z,2.72
2019-03-09T16:41:18.073Z,2.77
2019-03-09T16:43:48.835Z,2.80
2019-03-09T16:46:19.547Z,2.92
2019-03-09T16:48:50.361Z,2.77
2019-03-09T16:51:21.211Z,2.67
2019-03-09T16:53:53.205Z,2.92
2019-03-09T16:56:24.352Z,3.02
2019-03-09T16:58:56.565Z,2.80
2019-03-09T17:01:27.299Z,3.20
2019-03-09T17:03:58.476Z,2.90
2019-03-09T17:06:30.506Z,3.60
2019-03-09T17:09:02.029Z,6.20
2019-03-09T17:11:33.525Z,3.87
2019-03-09T17:14:04.698Z,3.12
2019-03-09T17:16:35.293Z,2.87
2019-03-09T17:19:05.977Z,3.45
2019-03-09T17:21:36.669Z,2.90
2019-03-09T17:24:07.463Z,2.98
2019-03-09T17:26:38.652Z,3.65
2019-03-09T17:29:09.387Z,3.02
2019-03-09T17:31:40.689Z,2.65
2019-03-09T17:34:12.097Z,3.10
2019-03-09T17:36:43.667Z,2.37
2019-03-09T17:39:14.922Z,2.77
2019-03-09T17:41:47.156Z,3.00
2019-03-09T17:44:17.828Z,2.98
2019-03-09T17:46:48.616Z,2.55
2019-03-09T17:49:19.156Z,2.95
2019-03-09T17:51:50.074Z,2.67
2019-03-09T17:54:20.720Z,2.30
2019-03-09T17:56:51.398Z,3.00
2019-03-09T17:59:22.228Z,2.72
2019-03-09T18:05:40.829Z,2.60
2019-03-09T18:08:11.585Z,2.40
2019-03-09T18:10:49.154Z,2.47
2019-03-09T18:13:19.962Z,2.22
2019-03-09T18:15:50.704Z,2.52
2019-03-09T18:18:21.612Z,2.40
2019-03-09T18:20:52.404Z,2.08
2019-03-09T18:23:22.964Z,2.55
2019-03-09T18:25:53.864Z,2.70
2019-03-09T18:28:24.588Z,2.72
2019-03-09T18:30:55.924Z,2.70
2019-03-09T18:33:26.651Z,2.40
2019-03-09T18:35:57.291Z,2.52
2019-03-09T18:38:28.264Z,2.60
2019-03-09T18:40:59.287Z,2.40
2019-03-09T18:43:30.020Z,2.60
2019-03-09T18:46:00.778Z,2.60
2019-03-09T18:48:31.615Z,2.47
2019-03-09T18:51:02.314Z,2.60
2019-03-09T18:53:33.255Z,2.20
2019-03-09T18:56:03.658Z,2.30
2019-03-09T18:58:34.548Z,2.37
2019-03-09T19:01:05.342Z,2.80
2019-03-09T19:03:36.092Z,2.40
2019-03-09T19:06:06.881Z,2.25
2019-03-09T19:08:37.491Z,2.95
2019-03-09T19:11:08.593Z,2.20
2019-03-09T19:13:39.538Z,2.42
2019-03-09T19:16:10.863Z,2.40
2019-03-09T19:18:41.791Z,2.40
2019-03-09T19:21:13.698Z,2.45
2019-03-09T19:23:47.823Z,2.67
2019-03-09T19:26:20.326Z,2.60
2019-03-09T19:28:51.053Z,2.33
2019-03-09T19:31:21.498Z,2.65
2019-03-09T19:33:52.063Z,2.37
2019-03-09T19:36:22.809Z,2.05
2019-03-09T19:38:53.687Z,2.30
2019-03-09T19:41:25.026Z,2.20
2019-03-09T19:43:56.815Z,2.33
2019-03-09T19:46:28.228Z,2.40
2019-03-09T19:48:59.316Z,2.00
2019-03-09T19:51:31.353Z,2.55
2019-03-09T19:54:02.042Z,2.00
2019-03-09T19:56:33.566Z,2.12
2019-03-09T19:59:05.239Z,2.22
2019-03-09T20:01:37.756Z,2.20
2019-03-09T20:04:08.491Z,2.30
2019-03-09T20:06:40.159Z,2.20
2019-03-09T20:09:11.896Z,2.10
2019-03-09T20:11:43.823Z,1.98
2019-03-09T20:14:15.392Z,2.12
2019-03-09T20:16:46.143Z,2.40
2019-03-09T20:19:17.840Z,2.70
2019-03-09T20:21:51.093Z,2.47
2019-03-09T20:24:23.297Z,2.60
2019-03-09T20:26:55.006Z,2.85
2019-03-09T20:29:26.085Z,2.47
2019-03-09T20:31:56.972Z,2.50
2019-03-09T20:34:27.993Z,2.40
2019-03-09T20:36:58.769Z,2.40
2019-03-09T20:39:29.747Z,2.20
2019-03-09T20:42:01.121Z,2.50
2019-03-09T20:44:31.873Z,2.80
2019-03-09T20:47:02.526Z,2.60
2019-03-09T20:49:33.490Z,2.47
2019-03-09T20:52:04.786Z,2.60
2019-03-09T20:54:36.082Z,2.10
2019-03-09T20:57:07.586Z,2.30
2019-03-09T20:59:39.168Z,2.20
2019-03-09T21:02:10.831Z,2.30
2019-03-09T21:04:41.643Z,1.90
2019-03-09T21:07:12.651Z,2.12
2019-03-09T21:09:43.929Z,2.25
2019-03-09T21:12:14.948Z,2.40
2019-03-09T21:14:46.187Z,2.00
2019-03-09T21:17:19.402Z,2.10
2019-03-09T21:19:51.388Z,2.12
2019-03-09T21:22:22.493Z,2.00
2019-03-09T21:24:53.723Z,2.25
2019-03-09T21:27:24.796Z,2.10
2019-03-09T21:29:55.846Z,1.80
2019-03-09T21:32:26.749Z,1.90
2019-03-09T21:34:58.188Z,2.12
2019-03-09T21:37:30.053Z,2.00
2019-03-09T21:40:01.310Z,2.17
2019-03-09T21:42:32.180Z,2.17
2019-03-09T21:45:03.879Z,1.77
2019-03-09T21:47:34.590Z,2.00
2019-03-09T21:50:06.893Z,1.72
2019-03-09T21:52:38.333Z,1.98
2019-03-09T21:55:10.613Z,1.90
2019-03-09T21:57:41.563Z,2.40
2019-03-09T22:00:14.003Z,2.10
2019-03-09T22:02:45.740Z,1.90
2019-03-09T22:05:17.595Z,2.10
2019-03-09T22:07:49.970Z,1.85
2019-03-09T22:10:21.885Z,1.80
2019-03-09T22:12:55.143Z,1.82
2019-03-09T22:15:27.479Z,2.00
2019-03-09T22:18:00.012Z,2.00
2019-03-09T22:20:31.775Z,2.12
2019-03-09T22:23:03.740Z,1.90
2019-03-09T22:25:35.829Z,2.27
2019-03-09T22:28:07.904Z,1.98
2019-03-09T22:30:39.984Z,1.75
2019-03-09T22:33:11.739Z,2.20
2019-03-09T22:35:43.558Z,2.00
2019-03-09T22:38:16.475Z,1.57
2019-03-09T22:40:48.191Z,2.30
2019-03-09T22:43:20.245Z,1.92
2019-03-09T22:45:54.475Z,1.77
2019-03-09T22:48:27.506Z,1.82
2019-03-09T22:51:00.532Z,1.90
2019-03-09T22:53:32.854Z,1.95
2019-03-09T22:56:06.535Z,1.95
2019-03-09T22:58:39.034Z,1.82
2019-03-09T23:01:11.991Z,2.00
2019-03-09T23:03:43.648Z,2.00
2019-03-09T23:06:14.782Z,1.67
2019-03-09T23:08:46.868Z,2.10
2019-03-09T23:11:18.701Z,2.12
2019-03-09T23:13:52.725Z,2.02
2019-03-09T23:16:26.173Z,2.20
2019-03-09T23:18:58.928Z,1.75
2019-03-09T23:21:30.664Z,1.90
2019-03-09T23:24:02.153Z,1.60
2019-03-09T23:26:33.809Z,2.02
2019-03-09T23:29:05.432Z,1.80
2019-03-09T23:31:37.552Z,2.15
2019-03-09T23:34:08.141Z,1.95
2019-03-09T23:36:38.758Z,1.82
2019-03-09T23:39:10.745Z,1.77
2019-03-09T23:41:42.798Z,1.60
2019-03-09T23:44:14.679Z,1.70
2019-03-09T23:46:46.262Z,1.70
2019-03-09T23:49:16.968Z,1.82
2019-03-09T23:51:48.429Z,1.60
2019-03-09T23:54:19.777Z,1.98
2019-03-09T23:56:50.602Z,1.70
2019-03-09T23:59:21.433Z,1.70
